sensor_id;sensor_type;location;lat;lon;timestamp;P1;durP1;ratioP1;P2;durP2;ratioP2
71298;SDS011;59083;47.974;21.722;2023-03-26T00:01:15;7.85;;;2.92;;
71298;SDS011;59083;47.974;21.722;2023-03-26T00:04:19;6.43;;;2.90;;
71298;SDS011;59083;47.974;21.722;2023-03-26T00:07:21;8.27;;;3.10;;
71298;SDS011;59083;47.974;21.722;2023-03-26T00:10:22;7.40;;;2.87;;
71298;SDS011;59083;47.974;21.722;2023-03-26T00:13:25;8.80;;;3.08;;
71298;SDS011;59083;47.974;21.722;2023-03-26T00:16:27;8.25;;;2.75;;
71298;SDS011;59083;47.974;21.722;2023-03-26T00:19:30;8.27;;;3.15;;
71298;SDS011;59083;47.974;21.722;2023-03-26T00:22:32;7.28;;;3.03;;
71298;SDS011;59083;47.974;21.722;2023-03-26T00:25:36;7.67;;;2.97;;
71298;SDS011;59083;47.974;21.722;2023-03-26T00:28:41;7.22;;;2.67;;
71298;SDS011;59083;47.974;21.722;2023-03-26T00:31:42;7.43;;;2.95;;
71298;SDS011;59083;47.974;21.722;2023-03-26T00:34:46;7.10;;;2.70;;
71298;SDS011;59083;47.974;21.722;2023-03-26T00:37:47;6.57;;;2.70;;
71298;SDS011;59083;47.974;21.722;2023-03-26T00:40:51;18.10;;;3.07;;
71298;SDS011;59083;47.974;21.722;2023-03-26T00:43:54;8.93;;;2.87;;
71298;SDS011;59083;47.974;21.722;2023-03-26T00:46:57;6.45;;;2.90;;
71298;SDS011;59083;47.974;21.722;2023-03-26T00:49:58;8.85;;;3.30;;
71298;SDS011;59083;47.974;21.722;2023-03-26T00:53:00;8.48;;;3.20;;
71298;SDS011;59083;47.974;21.722;2023-03-26T00:56:02;10.90;;;3.20;;
71298;SDS011;59083;47.974;21.722;2023-03-26T00:59:07;7.72;;;3.28;;
71298;SDS011;59083;47.974;21.722;2023-03-26T01:02:11;9.60;;;3.53;;
71298;SDS011;59083;47.974;21.722;2023-03-26T01:08:48;7.85;;;3.53;;
71298;SDS011;59083;47.974;21.722;2023-03-26T01:11:50;8.47;;;3.43;;
71298;SDS011;59083;47.974;21.722;2023-03-26T01:14:53;7.60;;;3.55;;
71298;SDS011;59083;47.974;21.722;2023-03-26T01:17:56;9.43;;;3.58;;
71298;SDS011;59083;47.974;21.722;2023-03-26T01:20:59;9.43;;;4.18;;
71298;SDS011;59083;47.974;21.722;2023-03-26T01:24:06;8.88;;;3.17;;
71298;SDS011;59083;47.974;21.722;2023-03-26T01:27:19;9.70;;;3.93;;
71298;SDS011;59083;47.974;21.722;2023-03-26T01:30:38;8.50;;;3.70;;
71298;SDS011;59083;47.974;21.722;2023-03-26T01:34:13;9.15;;;3.50;;
71298;SDS011;59083;47.974;21.722;2023-03-26T01:37:21;8.88;;;3.45;;
71298;SDS011;59083;47.974;21.722;2023-03-26T01:40:32;7.53;;;3.22;;
71298;SDS011;59083;47.974;21.722;2023-03-26T01:47:15;8.70;;;3.40;;
71298;SDS011;59083;47.974;21.722;2023-03-26T01:50:18;10.18;;;3.53;;
71298;SDS011;59083;47.974;21.722;2023-03-26T01:53:19;9.10;;;3.50;;
71298;SDS011;59083;47.974;21.722;2023-03-26T01:56:35;9.87;;;3.47;;
71298;SDS011;59083;47.974;21.722;2023-03-26T02:06:31;7.28;;;3.00;;
71298;SDS011;59083;47.974;21.722;2023-03-26T02:09:41;6.62;;;3.20;;
71298;SDS011;59083;47.974;21.722;2023-03-26T02:12:47;6.90;;;2.87;;
71298;SDS011;59083;47.974;21.722;2023-03-26T02:15:53;6.33;;;2.60;;
71298;SDS011;59083;47.974;21.722;2023-03-26T02:18:57;9.48;;;2.78;;
71298;SDS011;59083;47.974;21.722;2023-03-26T02:21:59;5.95;;;2.75;;
71298;SDS011;59083;47.974;21.722;2023-03-26T02:25:00;7.37;;;2.65;;
71298;SDS011;59083;47.974;21.722;2023-03-26T02:28:02;5.33;;;2.37;;
71298;SDS011;59083;47.974;21.722;2023-03-26T02:31:04;8.03;;;2.70;;
71298;SDS011;59083;47.974;21.722;2023-03-26T02:34:09;7.65;;;2.60;;
71298;SDS011;59083;47.974;21.722;2023-03-26T02:37:11;6.22;;;2.80;;
71298;SDS011;59083;47.974;21.722;2023-03-26T02:40:12;5.95;;;2.47;;
71298;SDS011;59083;47.974;21.722;2023-03-26T02:43:14;7.67;;;3.00;;
71298;SDS011;59083;47.974;21.722;2023-03-26T02:46:17;4.73;;;2.17;;
71298;SDS011;59083;47.974;21.722;2023-03-26T02:49:19;5.40;;;2.15;;
71298;SDS011;59083;47.974;21.722;2023-03-26T02:52:21;7.32;;;2.75;;
71298;SDS011;59083;47.974;21.722;2023-03-26T02:55:22;7.35;;;2.50;;
71298;SDS011;59083;47.974;21.722;2023-03-26T02:58:25;5.83;;;2.27;;
71298;SDS011;59083;47.974;21.722;2023-03-26T03:01:26;6.40;;;2.23;;
71298;SDS011;59083;47.974;21.722;2023-03-26T03:04:31;6.00;;;2.33;;
71298;SDS011;59083;47.974;21.722;2023-03-26T03:07:32;4.93;;;2.28;;
71298;SDS011;59083;47.974;21.722;2023-03-26T03:10:38;6.43;;;2.25;;
71298;SDS011;59083;47.974;21.722;2023-03-26T03:13:39;6.00;;;1.90;;
71298;SDS011;59083;47.974;21.722;2023-03-26T03:16:41;7.30;;;1.90;;
71298;SDS011;59083;47.974;21.722;2023-03-26T03:19:43;6.37;;;2.15;;
71298;SDS011;59083;47.974;21.722;2023-03-26T03:22:45;6.90;;;2.00;;
71298;SDS011;59083;47.974;21.722;2023-03-26T03:25:46;5.80;;;1.98;;
71298;SDS011;59083;47.974;21.722;2023-03-26T03:28:48;5.05;;;1.92;;
71298;SDS011;59083;47.974;21.722;2023-03-26T03:31:51;4.63;;;1.97;;
71298;SDS011;59083;47.974;21.722;2023-03-26T03:34:53;4.70;;;2.00;;
71298;SDS011;59083;47.974;21.722;2023-03-26T03:37:55;5.93;;;1.90;;
71298;SDS011;59083;47.974;21.722;2023-03-26T03:40:57;4.85;;;1.60;;
71298;SDS011;59083;47.974;21.722;2023-03-26T03:43:59;4.13;;;1.70;;
71298;SDS011;59083;47.974;21.722;2023-03-26T03:47:02;5.27;;;1.80;;
71298;SDS011;59083;47.974;21.722;2023-03-26T03:50:04;7.47;;;1.90;;
71298;SDS011;59083;47.974;21.722;2023-03-26T03:53:06;5.57;;;1.87;;
71298;SDS011;59083;47.974;21.722;2023-03-26T03:56:08;4.07;;;1.67;;
71298;SDS011;59083;47.974;21.722;2023-03-26T03:59:18;3.57;;;1.43;;
71298;SDS011;59083;47.974;21.722;2023-03-26T04:02:19;4.53;;;1.80;;
71298;SDS011;59083;47.974;21.722;2023-03-26T04:05:30;3.80;;;1.65;;
71298;SDS011;59083;47.974;21.722;2023-03-26T04:08:32;4.30;;;1.58;;
71298;SDS011;59083;47.974;21.722;2023-03-26T04:11:35;4.18;;;1.60;;
71298;SDS011;59083;47.974;21.722;2023-03-26T04:14:37;3.47;;;1.50;;
71298;SDS011;59083;47.974;21.722;2023-03-26T04:17:39;3.60;;;1.60;;
71298;SDS011;59083;47.974;21.722;2023-03-26T04:20:42;4.00;;;1.70;;
71298;SDS011;59083;47.974;21.722;2023-03-26T04:23:48;5.50;;;1.75;;
71298;SDS011;59083;47.974;21.722;2023-03-26T04:26:49;5.53;;;1.62;;
71298;SDS011;59083;47.974;21.722;2023-03-26T04:29:50;3.60;;;1.50;;
71298;SDS011;59083;47.974;21.722;2023-03-26T04:32:53;3.60;;;1.50;;
71298;SDS011;59083;47.974;21.722;2023-03-26T04:35:59;4.85;;;1.90;;
71298;SDS011;59083;47.974;21.722;2023-03-26T04:39:05;4.32;;;1.60;;
71298;SDS011;59083;47.974;21.722;2023-03-26T04:42:10;3.62;;;1.48;;
71298;SDS011;59083;47.974;21.722;2023-03-26T04:45:13;4.40;;;1.60;;
71298;SDS011;59083;47.974;21.722;2023-03-26T04:48:18;4.10;;;1.80;;
71298;SDS011;59083;47.974;21.722;2023-03-26T04:51:23;4.12;;;1.80;;
71298;SDS011;59083;47.974;21.722;2023-03-26T04:54:27;4.03;;;1.50;;
71298;SDS011;59083;47.974;21.722;2023-03-26T04:57:31;4.78;;;1.70;;
71298;SDS011;59083;47.974;21.722;2023-03-26T05:00:37;4.23;;;1.70;;
71298;SDS011;59083;47.974;21.722;2023-03-26T05:03:38;4.77;;;1.93;;
71298;SDS011;59083;47.974;21.722;2023-03-26T05:06:42;5.37;;;1.85;;
71298;SDS011;59083;47.974;21.722;2023-03-26T05:09:44;4.00;;;1.60;;
71298;SDS011;59083;47.974;21.722;2023-03-26T05:12:46;5.50;;;1.90;;
71298;SDS011;59083;47.974;21.722;2023-03-26T05:15:48;4.30;;;1.87;;
71298;SDS011;59083;47.974;21.722;2023-03-26T05:18:50;5.57;;;1.80;;
71298;SDS011;59083;47.974;21.722;2023-03-26T05:21:52;5.25;;;2.30;;
71298;SDS011;59083;47.974;21.722;2023-03-26T05:24:53;5.10;;;1.85;;
71298;SDS011;59083;47.974;21.722;2023-03-26T05:27:54;4.45;;;1.95;;
71298;SDS011;59083;47.974;21.722;2023-03-26T05:30:58;5.43;;;2.13;;
71298;SDS011;59083;47.974;21.722;2023-03-26T05:34:01;4.47;;;1.70;;
71298;SDS011;59083;47.974;21.722;2023-03-26T05:37:02;3.67;;;1.65;;
71298;SDS011;59083;47.974;21.722;2023-03-26T05:40:06;6.55;;;1.80;;
71298;SDS011;59083;47.974;21.722;2023-03-26T05:43:18;4.12;;;1.50;;
71298;SDS011;59083;47.974;21.722;2023-03-26T05:46:20;4.33;;;1.70;;
71298;SDS011;59083;47.974;21.722;2023-03-26T05:49:23;4.40;;;1.67;;
71298;SDS011;59083;47.974;21.722;2023-03-26T05:52:24;9.98;;;4.75;;
71298;SDS011;59083;47.974;21.722;2023-03-26T05:55:27;5.87;;;1.77;;
71298;SDS011;59083;47.974;21.722;2023-03-26T05:58:34;4.07;;;1.25;;
71298;SDS011;59083;47.974;21.722;2023-03-26T06:01:38;3.23;;;1.40;;
71298;SDS011;59083;47.974;21.722;2023-03-26T06:04:45;3.10;;;1.40;;
71298;SDS011;59083;47.974;21.722;2023-03-26T06:07:47;3.97;;;1.37;;
71298;SDS011;59083;47.974;21.722;2023-03-26T06:10:48;3.33;;;1.30;;
71298;SDS011;59083;47.974;21.722;2023-03-26T06:13:53;2.92;;;1.27;;
71298;SDS011;59083;47.974;21.722;2023-03-26T06:16:54;3.45;;;1.30;;
71298;SDS011;59083;47.974;21.722;2023-03-26T06:19:55;5.63;;;1.30;;
71298;SDS011;59083;47.974;21.722;2023-03-26T06:22:57;2.53;;;1.20;;
71298;SDS011;59083;47.974;21.722;2023-03-26T06:25:58;4.05;;;1.58;;
71298;SDS011;59083;47.974;21.722;2023-03-26T06:28:59;4.20;;;1.45;;
71298;SDS011;59083;47.974;21.722;2023-03-26T06:32:01;3.30;;;1.20;;
71298;SDS011;59083;47.974;21.722;2023-03-26T06:35:05;3.97;;;1.43;;
71298;SDS011;59083;47.974;21.722;2023-03-26T06:38:06;2.45;;;1.27;;
71298;SDS011;59083;47.974;21.722;2023-03-26T06:41:08;3.50;;;1.40;;
71298;SDS011;59083;47.974;21.722;2023-03-26T06:44:09;3.08;;;1.40;;
71298;SDS011;59083;47.974;21.722;2023-03-26T06:47:12;3.40;;;1.35;;
71298;SDS011;59083;47.974;21.722;2023-03-26T06:50:14;3.70;;;1.60;;
71298;SDS011;59083;47.974;21.722;2023-03-26T06:53:15;4.72;;;1.50;;
71298;SDS011;59083;47.974;21.722;2023-03-26T06:56:17;4.47;;;1.35;;
71298;SDS011;59083;47.974;21.722;2023-03-26T06:59:21;4.37;;;1.70;;
71298;SDS011;59083;47.974;21.722;2023-03-26T07:02:26;3.83;;;1.60;;
71298;SDS011;59083;47.974;21.722;2023-03-26T07:05:39;3.00;;;1.30;;
71298;SDS011;59083;47.974;21.722;2023-03-26T07:08:42;4.00;;;1.50;;
71298;SDS011;59083;47.974;21.722;2023-03-26T07:11:45;2.55;;;1.30;;
71298;SDS011;59083;47.974;21.722;2023-03-26T07:14:47;4.05;;;1.60;;
71298;SDS011;59083;47.974;21.722;2023-03-26T07:17:49;6.03;;;2.90;;
71298;SDS011;59083;47.974;21.722;2023-03-26T07:20:52;3.03;;;1.50;;
71298;SDS011;59083;47.974;21.722;2023-03-26T07:23:53;3.87;;;1.40;;
71298;SDS011;59083;47.974;21.722;2023-03-26T07:27:06;5.15;;;1.80;;
71298;SDS011;59083;47.974;21.722;2023-03-26T07:37:40;4.60;;;1.50;;
71298;SDS011;59083;47.974;21.722;2023-03-26T07:47:43;4.15;;;1.40;;
71298;SDS011;59083;47.974;21.722;2023-03-26T07:50:47;4.20;;;1.40;;
71298;SDS011;59083;47.974;21.722;2023-03-26T07:53:51;4.33;;;1.50;;
71298;SDS011;59083;47.974;21.722;2023-03-26T07:57:00;4.20;;;1.50;;
71298;SDS011;59083;47.974;21.722;2023-03-26T08:00:16;4.28;;;1.70;;
71298;SDS011;59083;47.974;21.722;2023-03-26T08:07:17;4.55;;;1.80;;
71298;SDS011;59083;47.974;21.722;2023-03-26T08:10:56;4.43;;;1.60;;
71298;SDS011;59083;47.974;21.722;2023-03-26T08:14:06;3.90;;;1.58;;
71298;SDS011;59083;47.974;21.722;2023-03-26T08:17:22;3.47;;;1.30;;
71298;SDS011;59083;47.974;21.722;2023-03-26T08:20:34;5.20;;;1.48;;
71298;SDS011;59083;47.974;21.722;2023-03-26T08:23:46;3.50;;;1.37;;
71298;SDS011;59083;47.974;21.722;2023-03-26T08:26:58;4.23;;;1.40;;
71298;SDS011;59083;47.974;21.722;2023-03-26T08:30:18;3.83;;;1.60;;
71298;SDS011;59083;47.974;21.722;2023-03-26T08:33:21;3.58;;;1.52;;
71298;SDS011;59083;47.974;21.722;2023-03-26T08:36:27;4.75;;;1.80;;
71298;SDS011;59083;47.974;21.722;2023-03-26T08:39:29;5.35;;;1.50;;
71298;SDS011;59083;47.974;21.722;2023-03-26T08:42:38;4.33;;;1.70;;
71298;SDS011;59083;47.974;21.722;2023-03-26T08:45:53;3.72;;;1.50;;
71298;SDS011;59083;47.974;21.722;2023-03-26T09:48:53;5.43;;;1.50;;
71298;SDS011;59083;47.974;21.722;2023-03-26T09:58:40;3.72;;;1.30;;
71298;SDS011;59083;47.974;21.722;2023-03-26T10:01:52;2.50;;;1.05;;
71298;SDS011;59083;47.974;21.722;2023-03-26T10:08:50;5.57;;;1.20;;
71298;SDS011;59083;47.974;21.722;2023-03-26T10:12:14;3.70;;;1.10;;
71298;SDS011;59083;47.974;21.722;2023-03-26T10:15:30;3.40;;;1.10;;
71298;SDS011;59083;47.974;21.722;2023-03-26T10:25:22;3.25;;;1.08;;
71298;SDS011;59083;47.974;21.722;2023-03-26T10:32:32;2.83;;;1.15;;
71298;SDS011;59083;47.974;21.722;2023-03-26T10:39:21;2.93;;;1.10;;
71298;SDS011;59083;47.974;21.722;2023-03-26T10:52:12;2.53;;;1.00;;
71298;SDS011;59083;47.974;21.722;2023-03-26T10:55:21;1.93;;;0.90;;
71298;SDS011;59083;47.974;21.722;2023-03-26T10:58:45;3.08;;;1.10;;
71298;SDS011;59083;47.974;21.722;2023-03-26T11:01:54;2.50;;;0.90;;
71298;SDS011;59083;47.974;21.722;2023-03-26T11:05:23;3.00;;;1.02;;
71298;SDS011;59083;47.974;21.722;2023-03-26T11:08:41;4.20;;;0.98;;
71298;SDS011;59083;47.974;21.722;2023-03-26T11:12:07;2.40;;;1.20;;
71298;SDS011;59083;47.974;21.722;2023-03-26T11:15:37;2.85;;;0.90;;
71298;SDS011;59083;47.974;21.722;2023-03-26T11:19:10;4.00;;;1.27;;
71298;SDS011;59083;47.974;21.722;2023-03-26T11:28:33;3.47;;;1.20;;
71298;SDS011;59083;47.974;21.722;2023-03-26T11:31:48;3.97;;;1.08;;
71298;SDS011;59083;47.974;21.722;2023-03-26T11:35:02;2.90;;;1.15;;
71298;SDS011;59083;47.974;21.722;2023-03-26T11:41:39;5.25;;;1.30;;
71298;SDS011;59083;47.974;21.722;2023-03-26T11:44:57;3.27;;;1.13;;
71298;SDS011;59083;47.974;21.722;2023-03-26T11:51:39;3.85;;;1.20;;
71298;SDS011;59083;47.974;21.722;2023-03-26T11:54:42;2.65;;;1.20;;
71298;SDS011;59083;47.974;21.722;2023-03-26T11:57:52;3.35;;;1.12;;
71298;SDS011;59083;47.974;21.722;2023-03-26T12:00:55;4.23;;;1.03;;
71298;SDS011;59083;47.974;21.722;2023-03-26T12:04:04;1.42;;;0.80;;
71298;SDS011;59083;47.974;21.722;2023-03-26T12:07:19;2.72;;;1.02;;
71298;SDS011;59083;47.974;21.722;2023-03-26T12:10:24;3.90;;;0.80;;
71298;SDS011;59083;47.974;21.722;2023-03-26T12:13:36;1.85;;;0.90;;
71298;SDS011;59083;47.974;21.722;2023-03-26T12:16:43;2.67;;;1.10;;
71298;SDS011;59083;47.974;21.722;2023-03-26T12:20:23;1.40;;;0.85;;
71298;SDS011;59083;47.974;21.722;2023-03-26T12:23:35;3.33;;;1.00;;
71298;SDS011;59083;47.974;21.722;2023-03-26T12:26:42;3.17;;;1.00;;
71298;SDS011;59083;47.974;21.722;2023-03-26T12:29:49;3.90;;;1.33;;
71298;SDS011;59083;47.974;21.722;2023-03-26T12:32:54;2.00;;;0.83;;
71298;SDS011;59083;47.974;21.722;2023-03-26T12:36:19;10.20;;;2.20;;
71298;SDS011;59083;47.974;21.722;2023-03-26T12:39:35;2.12;;;0.98;;
71298;SDS011;59083;47.974;21.722;2023-03-26T12:42:38;3.45;;;1.00;;
71298;SDS011;59083;47.974;21.722;2023-03-26T12:45:42;4.75;;;1.00;;
71298;SDS011;59083;47.974;21.722;2023-03-26T12:48:43;3.90;;;1.10;;
71298;SDS011;59083;47.974;21.722;2023-03-26T12:51:48;3.67;;;0.90;;
71298;SDS011;59083;47.974;21.722;2023-03-26T12:54:57;4.43;;;1.10;;
71298;SDS011;59083;47.974;21.722;2023-03-26T13:01:43;3.87;;;1.20;;
71298;SDS011;59083;47.974;21.722;2023-03-26T13:12:06;1.92;;;0.90;;
71298;SDS011;59083;47.974;21.722;2023-03-26T13:15:25;2.62;;;1.02;;
71298;SDS011;59083;47.974;21.722;2023-03-26T13:18:42;5.07;;;1.45;;
71298;SDS011;59083;47.974;21.722;2023-03-26T13:24:57;4.75;;;1.10;;
71298;SDS011;59083;47.974;21.722;2023-03-26T13:35:05;2.85;;;1.00;;
71298;SDS011;59083;47.974;21.722;2023-03-26T13:48:59;2.15;;;0.90;;
71298;SDS011;59083;47.974;21.722;2023-03-26T13:52:07;4.00;;;1.10;;
71298;SDS011;59083;47.974;21.722;2023-03-26T13:58:33;2.22;;;0.98;;
71298;SDS011;59083;47.974;21.722;2023-03-26T14:01:39;2.92;;;1.40;;
71298;SDS011;59083;47.974;21.722;2023-03-26T14:04:48;3.80;;;1.10;;
71298;SDS011;59083;47.974;21.722;2023-03-26T14:07:54;4.00;;;1.10;;
71298;SDS011;59083;47.974;21.722;2023-03-26T14:22:12;1.62;;;1.00;;
71298;SDS011;59083;47.974;21.722;2023-03-26T14:35:54;4.75;;;1.30;;
71298;SDS011;59083;47.974;21.722;2023-03-26T14:39:13;4.18;;;1.20;;
71298;SDS011;59083;47.974;21.722;2023-03-26T14:49:02;1.90;;;0.95;;
71298;SDS011;59083;47.974;21.722;2023-03-26T14:52:22;3.30;;;1.00;;
71298;SDS011;59083;47.974;21.722;2023-03-26T15:02:22;8.23;;;1.00;;
71298;SDS011;59083;47.974;21.722;2023-03-26T15:09:22;3.67;;;1.37;;
71298;SDS011;59083;47.974;21.722;2023-03-26T15:47:32;4.62;;;1.70;;
71298;SDS011;59083;47.974;21.722;2023-03-26T15:54:28;4.60;;;1.40;;
71298;SDS011;59083;47.974;21.722;2023-03-26T15:57:43;4.90;;;1.30;;
71298;SDS011;59083;47.974;21.722;2023-03-26T16:01:13;3.03;;;1.10;;
71298;SDS011;59083;47.974;21.722;2023-03-26T16:08:06;2.33;;;1.10;;
71298;SDS011;59083;47.974;21.722;2023-03-26T16:11:52;2.97;;;1.03;;
71298;SDS011;59083;47.974;21.722;2023-03-26T16:24:18;3.15;;;1.10;;
71298;SDS011;59083;47.974;21.722;2023-03-26T16:27:25;4.80;;;1.77;;
71298;SDS011;59083;47.974;21.722;2023-03-26T16:30:30;3.35;;;1.50;;
71298;SDS011;59083;47.974;21.722;2023-03-26T16:33:36;5.37;;;1.80;;
71298;SDS011;59083;47.974;21.722;2023-03-26T16:37:00;5.40;;;2.00;;
71298;SDS011;59083;47.974;21.722;2023-03-26T16:50:02;7.12;;;2.30;;
71298;SDS011;59083;47.974;21.722;2023-03-26T16:56:32;7.45;;;2.10;;
71298;SDS011;59083;47.974;21.722;2023-03-26T17:13:23;4.50;;;1.60;;
71298;SDS011;59083;47.974;21.722;2023-03-26T17:36:41;7.97;;;2.62;;
71298;SDS011;59083;47.974;21.722;2023-03-26T17:46:12;11.00;;;3.08;;
71298;SDS011;59083;47.974;21.722;2023-03-26T17:49:26;9.17;;;3.20;;
71298;SDS011;59083;47.974;21.722;2023-03-26T17:55:54;7.07;;;3.08;;
71298;SDS011;59083;47.974;21.722;2023-03-26T17:59:14;8.75;;;3.83;;
71298;SDS011;59083;47.974;21.722;2023-03-26T18:02:46;9.20;;;3.70;;
71298;SDS011;59083;47.974;21.722;2023-03-26T18:05:47;9.13;;;3.33;;
71298;SDS011;59083;47.974;21.722;2023-03-26T18:16:12;9.77;;;4.20;;
71298;SDS011;59083;47.974;21.722;2023-03-26T18:19:28;10.32;;;3.85;;
71298;SDS011;59083;47.974;21.722;2023-03-26T18:22:31;10.57;;;4.07;;
71298;SDS011;59083;47.974;21.722;2023-03-26T18:25:33;11.70;;;4.40;;
71298;SDS011;59083;47.974;21.722;2023-03-26T18:28:39;9.95;;;4.30;;
71298;SDS011;59083;47.974;21.722;2023-03-26T18:31:42;9.40;;;3.70;;
71298;SDS011;59083;47.974;21.722;2023-03-26T18:34:47;12.37;;;4.80;;
71298;SDS011;59083;47.974;21.722;2023-03-26T18:38:20;11.43;;;4.80;;
71298;SDS011;59083;47.974;21.722;2023-03-26T18:41:25;11.65;;;5.07;;
71298;SDS011;59083;47.974;21.722;2023-03-26T18:44:32;13.18;;;5.50;;
71298;SDS011;59083;47.974;21.722;2023-03-26T18:47:38;14.35;;;5.80;;
71298;SDS011;59083;47.974;21.722;2023-03-26T18:50:40;15.13;;;5.85;;
71298;SDS011;59083;47.974;21.722;2023-03-26T18:53:57;14.53;;;6.07;;
71298;SDS011;59083;47.974;21.722;2023-03-26T18:57:06;14.48;;;6.50;;
71298;SDS011;59083;47.974;21.722;2023-03-26T19:00:14;14.75;;;6.50;;
71298;SDS011;59083;47.974;21.722;2023-03-26T19:03:21;17.75;;;7.57;;
71298;SDS011;59083;47.974;21.722;2023-03-26T19:06:23;15.32;;;7.10;;
71298;SDS011;59083;47.974;21.722;2023-03-26T19:09:26;15.60;;;7.03;;
71298;SDS011;59083;47.974;21.722;2023-03-26T19:12:29;15.95;;;6.60;;
71298;SDS011;59083;47.974;21.722;2023-03-26T19:15:33;15.30;;;7.25;;
71298;SDS011;59083;47.974;21.722;2023-03-26T19:18:35;17.60;;;7.30;;
71298;SDS011;59083;47.974;21.722;2023-03-26T19:21:39;17.65;;;7.20;;
71298;SDS011;59083;47.974;21.722;2023-03-26T19:24:41;15.00;;;6.50;;
71298;SDS011;59083;47.974;21.722;2023-03-26T19:27:42;15.68;;;6.65;;
71298;SDS011;59083;47.974;21.722;2023-03-26T19:30:43;14.02;;;6.22;;
71298;SDS011;59083;47.974;21.722;2023-03-26T19:33:45;21.75;;;8.35;;
71298;SDS011;59083;47.974;21.722;2023-03-26T19:37:01;21.12;;;8.13;;
71298;SDS011;59083;47.974;21.722;2023-03-26T19:40:22;18.63;;;8.23;;
71298;SDS011;59083;47.974;21.722;2023-03-26T19:43:29;21.65;;;8.52;;
71298;SDS011;59083;47.974;21.722;2023-03-26T19:46:32;16.25;;;7.70;;
71298;SDS011;59083;47.974;21.722;2023-03-26T19:49:41;17.90;;;7.72;;
71298;SDS011;59083;47.974;21.722;2023-03-26T19:56:22;14.93;;;7.00;;
71298;SDS011;59083;47.974;21.722;2023-03-26T19:59:23;16.52;;;6.80;;
71298;SDS011;59083;47.974;21.722;2023-03-26T20:02:25;16.90;;;7.07;;
71298;SDS011;59083;47.974;21.722;2023-03-26T20:05:31;18.17;;;7.15;;
71298;SDS011;59083;47.974;21.722;2023-03-26T20:08:33;13.88;;;6.12;;
71298;SDS011;59083;47.974;21.722;2023-03-26T20:11:36;13.30;;;5.53;;
71298;SDS011;59083;47.974;21.722;2023-03-26T20:14:38;11.23;;;5.30;;
71298;SDS011;59083;47.974;21.722;2023-03-26T20:17:39;12.30;;;5.60;;
71298;SDS011;59083;47.974;21.722;2023-03-26T20:20:42;12.82;;;5.65;;
71298;SDS011;59083;47.974;21.722;2023-03-26T20:23:44;15.40;;;6.03;;
71298;SDS011;59083;47.974;21.722;2023-03-26T20:26:46;12.87;;;5.93;;
71298;SDS011;59083;47.974;21.722;2023-03-26T20:29:48;13.43;;;5.75;;
71298;SDS011;59083;47.974;21.722;2023-03-26T20:32:49;13.40;;;5.47;;
71298;SDS011;59083;47.974;21.722;2023-03-26T20:35:54;13.50;;;5.68;;
71298;SDS011;59083;47.974;21.722;2023-03-26T20:38:56;12.32;;;5.12;;
71298;SDS011;59083;47.974;21.722;2023-03-26T20:41:58;9.93;;;4.60;;
71298;SDS011;59083;47.974;21.722;2023-03-26T20:44:59;10.88;;;4.70;;
71298;SDS011;59083;47.974;21.722;2023-03-26T20:48:00;10.07;;;4.57;;
71298;SDS011;59083;47.974;21.722;2023-03-26T20:51:02;11.27;;;4.65;;
71298;SDS011;59083;47.974;21.722;2023-03-26T20:54:04;9.70;;;4.20;;
71298;SDS011;59083;47.974;21.722;2023-03-26T20:57:09;10.67;;;4.17;;
71298;SDS011;59083;47.974;21.722;2023-03-26T21:00:13;10.00;;;3.90;;
71298;SDS011;59083;47.974;21.722;2023-03-26T21:03:25;9.75;;;3.45;;
71298;SDS011;59083;47.974;21.722;2023-03-26T21:06:27;9.18;;;3.50;;
71298;SDS011;59083;47.974;21.722;2023-03-26T21:09:28;8.27;;;3.47;;
71298;SDS011;59083;47.974;21.722;2023-03-26T21:12:33;9.03;;;3.23;;
71298;SDS011;59083;47.974;21.722;2023-03-26T21:15:59;7.50;;;2.90;;
71298;SDS011;59083;47.974;21.722;2023-03-26T21:19:01;9.60;;;3.05;;
71298;SDS011;59083;47.974;21.722;2023-03-26T21:22:11;8.75;;;3.05;;
71298;SDS011;59083;47.974;21.722;2023-03-26T21:25:27;7.37;;;2.80;;
71298;SDS011;59083;47.974;21.722;2023-03-26T21:28:45;8.20;;;2.83;;
71298;SDS011;59083;47.974;21.722;2023-03-26T21:31:48;8.35;;;2.92;;
71298;SDS011;59083;47.974;21.722;2023-03-26T21:34:50;8.43;;;2.90;;
71298;SDS011;59083;47.974;21.722;2023-03-26T21:37:53;7.55;;;2.90;;
71298;SDS011;59083;47.974;21.722;2023-03-26T21:40:59;9.07;;;2.87;;
71298;SDS011;59083;47.974;21.722;2023-03-26T21:44:01;8.67;;;3.10;;
71298;SDS011;59083;47.974;21.722;2023-03-26T21:47:03;8.88;;;2.90;;
71298;SDS011;59083;47.974;21.722;2023-03-26T21:50:07;8.48;;;3.22;;
71298;SDS011;59083;47.974;21.722;2023-03-26T21:53:10;7.70;;;2.70;;
71298;SDS011;59083;47.974;21.722;2023-03-26T22:03:08;7.25;;;2.87;;
71298;SDS011;59083;47.974;21.722;2023-03-26T22:09:33;7.57;;;2.72;;
71298;SDS011;59083;47.974;21.722;2023-03-26T22:12:35;6.90;;;2.72;;
71298;SDS011;59083;47.974;21.722;2023-03-26T22:15:36;10.90;;;3.57;;
71298;SDS011;59083;47.974;21.722;2023-03-26T22:18:37;7.20;;;2.80;;
71298;SDS011;59083;47.974;21.722;2023-03-26T22:21:38;7.12;;;2.72;;
71298;SDS011;59083;47.974;21.722;2023-03-26T22:24:40;8.35;;;2.70;;
71298;SDS011;59083;47.974;21.722;2023-03-26T22:27:41;7.45;;;3.00;;
71298;SDS011;59083;47.974;21.722;2023-03-26T22:30:42;5.67;;;2.30;;
71298;SDS011;59083;47.974;21.722;2023-03-26T22:33:43;8.35;;;2.62;;
71298;SDS011;59083;47.974;21.722;2023-03-26T22:36:45;8.43;;;2.78;;
71298;SDS011;59083;47.974;21.722;2023-03-26T22:39:46;6.35;;;2.62;;
71298;SDS011;59083;47.974;21.722;2023-03-26T22:42:47;9.23;;;2.60;;
71298;SDS011;59083;47.974;21.722;2023-03-26T22:45:49;8.57;;;2.90;;
71298;SDS011;59083;47.974;21.722;2023-03-26T22:48:51;9.18;;;2.97;;
71298;SDS011;59083;47.974;21.722;2023-03-26T22:51:52;6.85;;;2.97;;
71298;SDS011;59083;47.974;21.722;2023-03-26T22:54:53;9.57;;;2.65;;
71298;SDS011;59083;47.974;21.722;2023-03-26T22:57:54;8.57;;;3.40;;
71298;SDS011;59083;47.974;21.722;2023-03-26T23:01:04;11.03;;;3.43;;
71298;SDS011;59083;47.974;21.722;2023-03-26T23:04:07;7.62;;;3.22;;
71298;SDS011;59083;47.974;21.722;2023-03-26T23:07:09;8.40;;;3.20;;
71298;SDS011;59083;47.974;21.722;2023-03-26T23:10:10;8.70;;;3.83;;
71298;SDS011;59083;47.974;21.722;2023-03-26T23:13:12;11.20;;;3.87;;
71298;SDS011;59083;47.974;21.722;2023-03-26T23:16:14;9.87;;;4.07;;
71298;SDS011;59083;47.974;21.722;2023-03-26T23:19:16;12.48;;;4.82;;
71298;SDS011;59083;47.974;21.722;2023-03-26T23:22:17;11.38;;;4.55;;
71298;SDS011;59083;47.974;21.722;2023-03-26T23:25:19;13.32;;;5.22;;
71298;SDS011;59083;47.974;21.722;2023-03-26T23:28:20;12.07;;;4.70;;
71298;SDS011;59083;47.974;21.722;2023-03-26T23:31:24;11.13;;;4.73;;
71298;SDS011;59083;47.974;21.722;2023-03-26T23:34:25;11.40;;;4.28;;
71298;SDS011;59083;47.974;21.722;2023-03-26T23:37:26;13.05;;;4.68;;
71298;SDS011;59083;47.974;21.722;2023-03-26T23:40:29;11.25;;;4.70;;
71298;SDS011;59083;47.974;21.722;2023-03-26T23:43:30;12.55;;;4.40;;
71298;SDS011;59083;47.974;21.722;2023-03-26T23:46:32;12.43;;;4.17;;
71298;SDS011;59083;47.974;21.722;2023-03-26T23:49:33;11.75;;;3.92;;
71298;SDS011;59083;47.974;21.722;2023-03-26T23:52:34;10.02;;;3.50;;
71298;SDS011;59083;47.974;21.722;2023-03-26T23:55:37;10.98;;;3.47;;
71298;SDS011;59083;47.974;21.722;2023-03-26T23:58:38;9.15;;;3.33;;
